メインページ
METAR-TAF:

METAR-TAF

空港 :

High Level, アルバータ州, カナダ

緯度: 58-37N, 経度: 117-10W, 海抜: 338m

現時点の気象観測

当レポートは20分前の18:00(UTC)に作成
北/北西の風 9kt、最大16ktの突風を伴う
気温 -10°C
湿度 92%
気圧 995 hPa
視程: 12.9km
高度2100ftの曇り
小雪

METAR: CYOJ 171800Z 34009G16KT 8SM -SN OVC021 M10/M11 A2939 RMK SC8 SLP982

時間: 11:20 (18:20 UTC)

予報

当レポートは5時間42分前の12:38(UTC)に作成
予報は17日の 13時(UTC)から 18日の 01時(UTC)まで有効
の風 8kt
視程: 10km
高度1000ftの曇り
17日の 13時(UTC)から 17日の 14時(UTC)まで一時的に
視程: 4.8km
高度500ftの曇り
小雪, 靄
確率 30%
17日の 13時(UTC)から 17日の 14時(UTC)まで
視程: 3.2km
(弱い) 凍雨, 靄
17日の 1400時(UTC)から
の風 8kt
視程: 9.7km
高度1000ftの曇り
小雪
17日の 14時(UTC)から 18日の 01時(UTC)まで一時的に
視程: 3.2km
高度500ftの曇り
小雪, 靄
確率 30%
17日の 14時(UTC)から 18日の 01時(UTC)まで
視程: 3.2km
(弱い) 凍雨, 靄

TAF: CYOJ 171238Z 1713/1801 35008KT P6SM OVC010 TEMPO 1713/1714 3SM -SN BR OVC005 PROB30 1713/1714 2SM -PL BR FM171400 35008KT 6SM -SN OVC010 TEMPO 1714/1801 2SM -SN BR OVC005 PROB30 1714/1801 2SM -PL BR RMK FCST BASED ON AUTO OBS. NXT FCST BY 171900Z

4,000以上の空港の気象観測と天気予報(METAR報とTAF報)

利用可能な観測所は地図上に黄色い丸と赤い丸で示す。

丸の上にカーソルを重ねると観測所名を参照できる。

次にクリックすると気象観測と天気予報を参照できる。

マップの切り替え:黒色「×」印の緑ボタンをクリックして拡大、「-」印の緑ボタンをクリックして縮小、緑色の三角印をクリックして隣りの地図に切り替え


METAR-TAF: